createdAt,value
2022-12-25T00:02:08.275Z,4.33
2022-12-25T00:07:10.089Z,4.93
2022-12-25T00:12:11.944Z,5.70
2022-12-25T00:17:14.231Z,5.40
2022-12-25T00:22:16.720Z,4.83
2022-12-25T00:27:18.701Z,4.97
2022-12-25T00:32:49.049Z,5.17
2022-12-25T00:38:28.983Z,5.00
2022-12-25T00:43:32.719Z,4.70
2022-12-25T00:48:37.941Z,4.83
2022-12-25T01:00:19.262Z,5.20
2022-12-25T01:05:35.155Z,7.27
2022-12-25T01:10:39.701Z,6.90
2022-12-25T01:35:30.361Z,5.93
2022-12-25T01:40:42.604Z,5.77
2022-12-25T01:45:56.828Z,6.33
2022-12-25T01:51:14.491Z,5.13
2022-12-25T01:56:16.410Z,5.00
2022-12-25T02:01:18.432Z,5.30
2022-12-25T02:06:21.006Z,5.00
2022-12-25T02:11:41.645Z,5.27
2022-12-25T02:16:56.620Z,5.77
2022-12-25T02:22:15.334Z,5.87
2022-12-25T02:27:27.448Z,5.53
2022-12-25T02:32:36.270Z,5.80
2022-12-25T02:37:56.627Z,5.00
2022-12-25T02:43:20.449Z,5.73
2022-12-25T02:48:42.973Z,5.03
2022-12-25T02:54:05.528Z,5.80
2022-12-25T02:59:26.770Z,5.30
2022-12-25T03:04:48.882Z,4.77
2022-12-25T03:10:21.433Z,5.60
2022-12-25T03:15:42.587Z,5.17
2022-12-25T03:21:03.205Z,5.10
2022-12-25T03:26:24.164Z,5.40
2022-12-25T03:31:39.833Z,4.97
2022-12-25T03:37:12.603Z,5.07
2022-12-25T03:42:54.681Z,5.03
2022-12-25T03:48:12.694Z,4.83
2022-12-25T03:53:43.276Z,5.60
2022-12-25T03:59:22.964Z,4.90
2022-12-25T04:04:44.299Z,5.90
2022-12-25T04:10:04.878Z,5.13
2022-12-25T04:15:25.566Z,4.90
2022-12-25T04:20:45.927Z,5.23
2022-12-25T04:26:06.375Z,5.80
2022-12-25T04:31:26.769Z,6.67
2022-12-25T04:36:28.617Z,5.67
2022-12-25T04:41:30.486Z,5.10
2022-12-25T04:46:32.383Z,7.20
2022-12-25T04:51:34.236Z,5.53
2022-12-25T04:56:41.697Z,5.37
2022-12-25T05:01:47.396Z,5.50
2022-12-25T05:06:49.604Z,5.47
2022-12-25T05:11:51.445Z,9.47
2022-12-25T05:16:53.223Z,8.07
2022-12-25T05:21:55.288Z,6.87
2022-12-25T05:26:57.090Z,7.00
2022-12-25T05:31:58.954Z,5.97
2022-12-25T05:37:00.729Z,5.53
2022-12-25T05:42:02.615Z,5.90
2022-12-25T05:47:04.551Z,5.70
2022-12-25T05:52:06.470Z,5.57
2022-12-25T05:57:08.328Z,5.77
2022-12-25T06:02:10.372Z,6.20
2022-12-25T06:07:12.623Z,6.63
2022-12-25T06:12:14.470Z,7.87
2022-12-25T06:17:16.314Z,8.17
2022-12-25T06:22:18.149Z,7.83
2022-12-25T06:27:20.113Z,7.43
2022-12-25T06:32:21.894Z,8.03
2022-12-25T06:37:23.671Z,7.60
2022-12-25T06:42:25.519Z,7.47
2022-12-25T06:47:27.288Z,7.67
2022-12-25T06:52:29.076Z,6.83
2022-12-25T06:57:30.933Z,8.23
2022-12-25T07:02:33.856Z,6.30
2022-12-25T07:07:36.849Z,7.07
2022-12-25T07:12:38.696Z,6.10
2022-12-25T07:17:40.624Z,6.20
2022-12-25T07:22:42.430Z,5.90
2022-12-25T07:27:44.194Z,6.03
2022-12-25T07:32:50.139Z,5.77
2022-12-25T07:37:52.297Z,5.70
2022-12-25T07:42:54.087Z,6.70
2022-12-25T07:47:57.768Z,5.67
2022-12-25T07:53:07.454Z,6.07
2022-12-25T07:58:23.170Z,6.33
2022-12-25T08:03:32.292Z,6.77
2022-12-25T08:08:42.348Z,6.80
2022-12-25T08:13:54.867Z,5.80
2022-12-25T08:19:07.040Z,6.17
2022-12-25T08:24:13.762Z,5.17
2022-12-25T08:34:55.049Z,5.50
2022-12-25T08:45:34.677Z,6.10
2022-12-25T08:50:45.268Z,4.80
2022-12-25T08:55:49.237Z,5.80
2022-12-25T09:00:52.545Z,4.87
2022-12-25T09:05:58.035Z,6.53
2022-12-25T09:11:05.177Z,4.90
2022-12-25T09:16:13.712Z,5.80
2022-12-25T09:21:19.614Z,6.30
2022-12-25T09:26:26.009Z,4.10
2022-12-25T09:31:30.774Z,5.00
2022-12-25T09:36:33.916Z,4.80
2022-12-25T09:42:02.221Z,4.53
2022-12-25T09:47:37.208Z,4.50
2022-12-25T09:53:15.191Z,4.70
2022-12-25T09:58:21.444Z,4.57
2022-12-25T10:04:02.689Z,4.00
2022-12-25T10:09:25.924Z,4.40
2022-12-25T10:14:39.357Z,3.67
2022-12-25T10:19:57.443Z,3.40
2022-12-25T10:25:00.928Z,3.30
2022-12-25T10:30:18.099Z,3.70
2022-12-25T10:35:23.138Z,3.60
2022-12-25T10:40:30.410Z,3.40
2022-12-25T10:45:44.113Z,3.87
2022-12-25T10:50:49.142Z,3.70
2022-12-25T10:56:04.907Z,4.50
2022-12-25T11:01:12.709Z,4.10
2022-12-25T11:06:29.766Z,4.27
2022-12-25T11:11:36.191Z,2.73
2022-12-25T11:16:42.558Z,2.80
2022-12-25T11:21:57.580Z,2.77
2022-12-25T11:27:03.084Z,2.90
2022-12-25T11:32:21.301Z,2.70
2022-12-25T11:37:45.295Z,2.70
2022-12-25T11:43:18.806Z,2.50
2022-12-25T11:48:41.771Z,2.27
2022-12-25T11:53:47.888Z,3.17
2022-12-25T12:28:07.311Z,2.03
2022-12-25T12:33:22.115Z,2.40
2022-12-25T12:38:27.724Z,2.50
2022-12-25T12:44:23.105Z,2.10
2022-12-25T12:49:37.191Z,2.37
2022-12-25T13:00:28.178Z,3.73
2022-12-25T13:06:02.346Z,2.93
2022-12-25T13:11:24.747Z,2.60
2022-12-25T13:16:31.335Z,2.20
2022-12-25T13:21:35.220Z,1.80
2022-12-25T13:26:39.298Z,2.00
2022-12-25T13:31:42.348Z,1.80
2022-12-25T13:36:46.259Z,2.30
2022-12-25T13:42:12.012Z,2.60
2022-12-25T13:47:32.411Z,2.50
2022-12-25T13:52:44.465Z,2.23
2022-12-25T13:57:54.823Z,4.47
2022-12-25T14:02:56.940Z,3.13
2022-12-25T14:08:12.478Z,3.47
2022-12-25T14:13:16.262Z,3.57
2022-12-25T14:18:20.341Z,3.83
2022-12-25T14:23:22.383Z,4.23
2022-12-25T14:28:27.029Z,3.60
2022-12-25T14:33:35.278Z,3.70
2022-12-25T14:38:39.533Z,4.37
2022-12-25T14:43:52.567Z,4.57
2022-12-25T14:49:20.878Z,3.30
2022-12-25T14:54:23.600Z,3.47
2022-12-25T14:59:26.598Z,3.37
2022-12-25T15:04:29.607Z,3.00
2022-12-25T15:09:32.074Z,3.90
2022-12-25T15:14:36.407Z,3.03
2022-12-25T15:19:39.091Z,4.23
2022-12-25T15:24:41.114Z,3.87
2022-12-25T15:30:09.198Z,3.70
2022-12-25T15:35:05.581Z,3.70
2022-12-25T15:40:07.991Z,4.07
2022-12-25T15:45:30.542Z,3.60
2022-12-25T15:50:32.787Z,4.70
2022-12-25T15:55:34.755Z,4.50
2022-12-25T16:00:36.641Z,5.87
2022-12-25T16:05:38.502Z,4.40
2022-12-25T16:10:40.586Z,6.03
2022-12-25T16:15:42.448Z,8.83
2022-12-25T16:20:44.511Z,6.70
2022-12-25T16:25:46.622Z,6.23
2022-12-25T16:30:48.767Z,5.13
2022-12-25T16:35:52.550Z,5.20
2022-12-25T16:40:57.409Z,3.73
2022-12-25T16:45:59.381Z,3.57
2022-12-25T16:51:01.293Z,4.00
2022-12-25T16:56:11.698Z,4.70
2022-12-25T17:01:16.855Z,4.13
2022-12-25T17:06:24.862Z,4.27
2022-12-25T17:11:30.190Z,3.97
2022-12-25T17:16:37.549Z,4.53
2022-12-25T17:21:39.568Z,4.87
2022-12-25T17:26:43.695Z,5.30
2022-12-25T17:31:45.672Z,5.30
2022-12-25T17:36:47.993Z,5.40
2022-12-25T17:41:52.883Z,5.40
2022-12-25T17:46:54.878Z,6.27
2022-12-25T17:51:56.917Z,6.87
2022-12-25T17:56:58.799Z,6.80
2022-12-25T18:02:00.770Z,6.47
2022-12-25T18:07:03.430Z,6.80
2022-12-25T18:12:05.712Z,5.57
2022-12-25T18:17:07.564Z,6.07
2022-12-25T18:22:09.379Z,5.80
2022-12-25T18:27:11.315Z,6.13
2022-12-25T18:32:13.635Z,6.00
2022-12-25T18:37:15.425Z,6.50
2022-12-25T18:43:02.767Z,7.13
2022-12-25T18:48:06.315Z,6.43
2022-12-25T18:53:08.413Z,5.67
2022-12-25T18:58:10.638Z,6.20
2022-12-25T19:03:12.453Z,6.93
2022-12-25T19:08:14.545Z,5.73
2022-12-25T19:13:16.396Z,5.10
2022-12-25T19:18:18.256Z,5.33
2022-12-25T19:23:20.082Z,5.47
2022-12-25T19:28:22.030Z,5.20
2022-12-25T19:33:24.804Z,4.07
2022-12-25T19:38:26.677Z,5.27
2022-12-25T19:43:29.575Z,4.20
2022-12-25T19:48:32.715Z,5.10
2022-12-25T19:53:34.510Z,4.80
2022-12-25T19:58:46.904Z,4.50
2022-12-25T20:03:54.602Z,5.50
2022-12-25T20:09:00.892Z,4.63
2022-12-25T20:14:07.857Z,4.10
2022-12-25T20:19:14.717Z,6.07
2022-12-25T20:24:35.696Z,5.60
2022-12-25T20:29:59.760Z,5.73
2022-12-25T20:35:05.861Z,5.30
2022-12-25T21:29:53.901Z,4.60
2022-12-25T21:47:05.118Z,4.70
2022-12-25T21:52:08.076Z,4.73
2022-12-25T21:57:10.863Z,4.03
2022-12-25T22:02:13.754Z,4.53
2022-12-25T22:07:22.487Z,4.57
2022-12-25T22:12:46.602Z,4.17
2022-12-25T22:18:08.309Z,3.60
2022-12-25T22:23:16.715Z,2.90
2022-12-25T22:28:19.691Z,3.63
2022-12-25T22:33:25.875Z,4.60
2022-12-25T22:38:28.980Z,3.60
2022-12-25T22:44:06.318Z,4.67
2022-12-25T22:48:58.690Z,3.77
2022-12-25T22:54:03.767Z,4.40
2022-12-25T22:59:07.155Z,3.87
2022-12-25T23:04:12.184Z,4.53
2022-12-25T23:09:24.015Z,7.90
2022-12-25T23:14:50.388Z,4.50
2022-12-25T23:20:16.825Z,4.37
2022-12-25T23:25:41.472Z,3.43
2022-12-25T23:30:48.236Z,4.50
2022-12-25T23:35:53.657Z,4.37
2022-12-25T23:40:57.046Z,4.43
2022-12-25T23:46:02.952Z,4.00
2022-12-25T23:51:07.674Z,4.73
2022-12-25T23:56:11.132Z,4.90
